Time;durP1;ratioP1;P1;durP2;ratioP2;P2;SDS_P1;SDS_P2;PMS_P1;PMS_P2;Temp;Humidity;BMP_temperature;BMP_pressure;BME280_temperature;BME280_humidity;BME280_pressure;Samples;Min_cycle;Max_cycle;Signal;HPM_P1;HPM_P2
2022/02/02 00:01:05;;;;;;;11.30;3.00;;;;;;;5.64;80.58;99875.94;5017419;28;20308;-70
2022/02/02 00:03:32;;;;;;;17.30;3.43;;;;;;;5.59;80.34;99877.06;5029804;28;20691;-70
2022/02/02 00:06:07;;;;;;;10.03;1.90;;;;;;;5.62;79.92;99888.38;5026713;28;20447;-70
2022/02/02 00:08:46;;;;;;;10.87;2.53;;;;;;;5.64;80.09;99883.88;5027190;28;20209;-70
2022/02/02 00:11:45;;;;;;;14.50;3.23;;;;;;;5.67;79.63;99886.34;5030661;28;20723;-70
2022/02/02 00:17:06;;;;;;;17.17;3.70;;;;;;;5.67;79.25;99865.22;4975751;28;20681;-71
2022/02/02 00:19:42;;;;;;;25.30;3.93;;;;;;;5.65;79.14;99853.88;5019829;28;20234;-70
2022/02/02 00:22:13;;;;;;;15.23;3.73;;;;;;;5.66;79.10;99863.50;5028008;28;20223;-70
2022/02/02 00:24:57;;;;;;;16.30;2.90;;;;;;;5.66;78.82;99868.78;5015880;28;20260;-70
2022/02/02 00:27:25;;;;;;;16.17;2.67;;;;;;;5.66;78.74;99884.66;5016559;28;20214;-70
2022/02/02 00:29:56;;;;;;;17.33;4.53;;;;;;;5.65;78.36;99885.56;5008887;28;20340;-70
2022/02/02 00:32:34;;;;;;;19.17;3.57;;;;;;;5.63;78.35;99893.59;5027908;28;20309;-70
2022/02/02 00:35:01;;;;;;;17.17;2.93;;;;;;;5.62;78.25;99893.66;5024020;28;20238;-70
2022/02/02 00:37:28;;;;;;;22.00;3.93;;;;;;;5.62;78.27;99898.94;5018262;28;20216;-70
2022/02/02 00:39:56;;;;;;;16.30;3.60;;;;;;;5.59;78.18;99900.81;5030143;28;20232;-70
2022/02/02 00:42:28;;;;;;;21.40;3.83;;;;;;;5.59;78.04;99910.53;5027057;28;20232;-70
2022/02/02 00:44:56;;;;;;;16.67;4.13;;;;;;;5.58;78.27;99904.41;5019030;28;20656;-70
2022/02/02 00:47:24;;;;;;;14.73;3.43;;;;;;;5.54;78.28;99916.09;5023028;28;20265;-70
2022/02/02 00:49:51;;;;;;;22.73;3.60;;;;;;;5.52;78.52;99910.03;5023257;28;20281;-70
2022/02/02 00:52:18;;;;;;;11.70;2.97;;;;;;;5.53;78.39;99895.03;5009789;28;20203;-70
2022/02/02 00:54:46;;;;;;;15.03;3.20;;;;;;;5.52;77.71;99894.19;5016009;28;20623;-70
2022/02/02 00:57:14;;;;;;;9.67;2.50;;;;;;;5.51;78.38;99897.75;5034804;28;20259;-70
2022/02/02 00:59:41;;;;;;;20.30;4.20;;;;;;;5.54;78.34;99912.59;5011698;28;20234;-70
2022/02/02 01:02:08;;;;;;;13.23;3.27;;;;;;;5.52;78.41;99899.47;5016016;28;20213;-70
2022/02/02 01:04:34;;;;;;;15.87;3.97;;;;;;;5.54;78.38;99905.53;5024449;28;20692;-69
2022/02/02 01:07:08;;;;;;;18.03;3.40;;;;;;;5.54;78.66;99913.44;5018874;28;20689;-70
2022/02/02 01:09:39;;;;;;;17.70;4.07;;;;;;;5.55;78.70;99912.47;5027324;28;20229;-70
2022/02/02 01:16:02;;;;;;;16.93;2.80;;;;;;;5.55;78.82;99912.47;4968230;28;20693;-70
2022/02/02 01:18:16;;;;;;;18.63;4.70;;;;;;;5.56;79.08;99914.19;5014057;28;20234;-70
2022/02/02 01:20:56;;;;;;;15.63;3.47;;;;;;;5.59;78.67;99911.38;5028849;28;20233;-70
2022/02/02 01:28:52;;;;;;;15.53;3.10;;;;;;;5.63;79.06;99927.06;5029534;28;20275;-69
2022/02/02 01:31:20;;;;;;;21.93;3.67;;;;;;;5.66;78.97;99916.34;5033900;28;20253;-70
2022/02/02 01:33:47;;;;;;;18.20;4.07;;;;;;;5.67;78.92;99931.25;5012522;28;20218;-70
2022/02/02 01:36:15;;;;;;;20.43;3.70;;;;;;;5.67;78.76;99928.63;5024620;28;20237;-70
2022/02/02 01:38:43;;;;;;;17.53;3.73;;;;;;;5.69;78.62;99922.31;5021704;28;20257;-70
2022/02/02 01:41:16;;;;;;;13.43;3.00;;;;;;;5.71;78.55;99944.22;5035689;28;20474;-70
2022/02/02 01:43:53;;;;;;;20.17;3.40;;;;;;;5.69;78.51;99940.81;5049249;28;20210;-70
2022/02/02 01:46:21;;;;;;;22.93;3.73;;;;;;;5.70;78.40;99941.66;5050173;28;20206;-70
2022/02/02 01:48:57;;;;;;;17.40;3.13;;;;;;;5.70;78.65;99931.09;5036712;28;20596;-70
2022/02/02 01:51:45;;;;;;;17.90;3.00;;;;;;;5.71;78.66;99938.09;5026246;28;20233;-70
2022/02/02 01:54:30;;;;;;;16.00;3.60;;;;;;;5.67;78.03;99945.31;5027786;28;20214;-70
2022/02/02 01:56:59;;;;;;;17.27;3.60;;;;;;;5.66;78.53;99948.91;5026378;28;20441;-70
2022/02/02 01:59:38;;;;;;;14.73;2.60;;;;;;;5.66;78.62;99935.69;5033122;28;20231;-70
2022/02/02 02:02:08;;;;;;;16.03;2.43;;;;;;;5.64;78.92;99942.84;5040100;28;20205;-70
2022/02/02 02:04:35;;;;;;;14.50;2.53;;;;;;;5.62;79.00;99950.00;5020755;28;20253;-69
2022/02/02 02:07:01;;;;;;;11.97;2.20;;;;;;;5.66;78.99;99969.19;5019263;28;20577;-70
2022/02/02 02:09:29;;;;;;;14.67;2.87;;;;;;;5.62;79.88;99951.78;5039798;28;20239;-70
2022/02/02 02:11:58;;;;;;;12.93;2.30;;;;;;;5.54;80.50;99970.69;5032596;28;20719;-70
2022/02/02 02:14:43;;;;;;;22.10;3.20;;;;;;;5.49;81.27;99994.72;5015954;28;20214;-70
2022/02/02 02:17:12;;;;;;;9.20;1.53;;;;;;;5.45;81.13;100006.34;5012591;28;20230;-70
2022/02/02 02:19:43;;;;;;;6.27;1.20;;;;;;;5.38;80.71;100001.47;5043672;28;20230;-70
2022/02/02 02:22:12;;;;;;;7.80;1.80;;;;;;;5.26;80.92;99997.69;5020468;28;20210;-71
2022/02/02 02:24:41;;;;;;;14.10;2.13;;;;;;;5.16;80.84;99996.47;5011648;28;20309;-70
2022/02/02 02:27:10;;;;;;;9.10;1.83;;;;;;;5.11;81.30;100001.97;5022520;28;20587;-70
2022/02/02 02:29:53;;;;;;;10.73;2.30;;;;;;;5.05;82.31;100004.06;5017497;28;20242;-70
2022/02/02 02:32:34;;;;;;;20.30;2.90;;;;;;;5.02;82.61;99978.69;5030296;28;20225;-70
2022/02/02 02:35:29;;;;;;;11.93;3.03;;;;;;;4.99;82.73;99993.84;5012242;28;20211;-70
2022/02/02 02:38:28;;;;;;;13.97;2.77;;;;;;;4.95;82.96;100002.84;5047471;28;20283;-70
2022/02/02 02:57:26;;;;;;;12.77;2.97;;;;;;;4.82;82.10;99966.53;5050006;28;20255;-70
2022/02/02 03:00:18;;;;;;;12.33;2.27;;;;;;;4.81;81.89;99969.25;5034174;28;20226;-70
2022/02/02 03:03:25;;;;;;;14.33;2.17;;;;;;;4.82;81.77;99963.91;5016639;28;20222;-70
2022/02/02 03:30:35;;;;;;;18.67;4.17;;;;;;;4.99;81.34;99991.19;5030480;28;20336;-71
2022/02/02 03:53:14;;;;;;;9.17;2.00;;;;;;;5.12;80.13;100023.94;5038742;28;20213;-70
2022/02/02 03:55:44;;;;;;;13.13;2.70;;;;;;;5.14;79.85;100037.94;5030358;28;21564;-70
2022/02/02 03:58:22;;;;;;;11.80;3.13;;;;;;;5.13;80.33;100046.78;5034880;28;20212;-70
2022/02/02 04:01:11;;;;;;;12.57;2.80;;;;;;;5.12;80.28;100059.13;5025048;28;20206;-71
2022/02/02 04:06:25;;;;;;;7.57;2.50;;;;;;;5.05;80.86;100065.63;5029951;28;20221;-71
2022/02/02 04:08:51;;;;;;;9.53;2.13;;;;;;;5.05;80.81;100057.69;5027735;28;20284;-71
2022/02/02 04:11:27;;;;;;;9.63;2.53;;;;;;;5.00;80.62;100048.31;5028866;28;20226;-71
2022/02/02 04:51:20;;;;;;;11.03;2.60;;;;;;;4.64;80.39;100115.16;4985613;28;20244;-71
2022/02/02 04:56:04;;;;;;;10.97;2.40;;;;;;;4.67;82.10;100119.41;5026854;28;20259;-71
2022/02/02 04:58:41;;;;;;;12.97;2.30;;;;;;;4.65;82.57;100122.13;5034965;28;20732;-70
2022/02/02 05:02:07;;;;;;;13.27;2.87;;;;;;;4.64;82.05;100120.44;5023989;28;20710;-68
2022/02/02 05:04:45;;;;;;;16.50;2.83;;;;;;;4.67;82.51;100124.66;5040867;28;20279;-71
2022/02/02 05:07:17;;;;;;;16.23;2.97;;;;;;;4.66;82.29;100104.53;5026864;28;20214;-69
2022/02/02 05:09:54;;;;;;;23.67;3.10;;;;;;;4.65;82.53;100114.22;5039204;28;20239;-70
2022/02/02 05:18:08;;;;;;;17.30;3.30;;;;;;;4.61;82.29;100110.00;5023969;28;20212;-70
2022/02/02 05:53:26;;;;;;;22.77;5.23;;;;;;;4.49;80.63;100179.13;5023395;28;20273;-70
2022/02/02 05:55:52;;;;;;;20.50;3.87;;;;;;;4.50;80.97;100179.06;5024579;28;20206;-69
2022/02/02 05:58:26;;;;;;;14.47;3.10;;;;;;;4.52;80.46;100184.28;5024531;28;20210;-69
2022/02/02 06:00:54;;;;;;;27.47;4.00;;;;;;;4.53;80.42;100191.25;5022356;28;20195;-70
2022/02/02 06:03:26;;;;;;;23.07;3.87;;;;;;;4.52;80.56;100197.47;5024803;28;20212;-69
2022/02/02 06:05:54;;;;;;;22.47;3.90;;;;;;;4.50;80.68;100196.66;5022573;28;20202;-71
2022/02/02 06:08:21;;;;;;;16.87;3.37;;;;;;;4.51;80.62;100199.22;5024539;28;20206;-69
2022/02/02 06:10:47;;;;;;;17.13;2.80;;;;;;;4.55;80.37;100197.31;5028932;28;20226;-70
2022/02/02 06:13:14;;;;;;;17.30;3.27;;;;;;;4.59;80.30;100213.88;5019738;28;20209;-71
2022/02/02 06:15:42;;;;;;;14.93;3.43;;;;;;;4.62;80.45;100211.09;5020764;28;20671;-70
2022/02/02 06:18:09;;;;;;;17.40;3.70;;;;;;;4.66;80.45;100215.31;5023940;28;20211;-70
2022/02/02 06:20:35;;;;;;;20.10;3.40;;;;;;;4.68;80.38;100219.56;5023776;28;20240;-69
2022/02/02 06:23:10;;;;;;;14.07;3.53;;;;;;;4.69;80.40;100213.34;5023441;28;20203;-70
2022/02/02 06:25:41;;;;;;;14.47;2.93;;;;;;;4.69;80.41;100223.91;5029938;28;20658;-69
2022/02/02 06:28:09;;;;;;;15.47;3.13;;;;;;;4.70;80.30;100224.78;5031541;28;20228;-70
2022/02/02 06:30:36;;;;;;;18.87;3.00;;;;;;;4.74;80.21;100227.19;5027387;28;20451;-70
2022/02/02 06:33:08;;;;;;;16.67;3.43;;;;;;;4.75;80.13;100218.38;5042106;28;20201;-71
2022/02/02 06:35:36;;;;;;;17.63;3.93;;;;;;;4.76;79.94;100211.31;5037755;28;20209;-70
2022/02/02 06:38:03;;;;;;;20.70;4.07;;;;;;;4.77;79.92;100220.94;5023882;28;20199;-70
2022/02/02 06:40:30;;;;;;;14.10;2.80;;;;;;;4.75;79.79;100230.69;5031776;28;20222;-69
2022/02/02 06:42:57;;;;;;;19.33;3.60;;;;;;;4.78;79.63;100212.09;5026551;28;20211;-68
2022/02/02 06:45:24;;;;;;;13.83;3.13;;;;;;;4.78;79.44;100239.34;5024787;28;20690;-70
2022/02/02 06:47:51;;;;;;;15.67;3.33;;;;;;;4.80;79.43;100236.63;5025248;28;20688;-70
2022/02/02 06:50:24;;;;;;;14.93;3.13;;;;;;;4.83;79.25;100249.69;5027581;28;20233;-70
2022/02/02 06:53:06;;;;;;;19.23;3.07;;;;;;;4.82;79.27;100248.81;5031762;28;20230;-70
2022/02/02 06:55:44;;;;;;;24.27;3.07;;;;;;;4.80;79.42;100266.50;5024149;28;20232;-70
2022/02/02 06:58:21;;;;;;;14.67;3.07;;;;;;;4.80;79.84;100261.22;5019977;28;20216;-69
2022/02/02 07:01:02;;;;;;;17.70;3.60;;;;;;;4.79;79.70;100264.78;5022713;28;20210;-70
2022/02/02 07:03:46;;;;;;;20.53;3.60;;;;;;;4.81;79.83;100270.84;5020051;28;20752;-69
2022/02/02 07:06:25;;;;;;;21.27;5.40;;;;;;;4.83;79.87;100268.16;5021417;28;20297;-70
2022/02/02 07:09:11;;;;;;;16.83;3.53;;;;;;;4.82;79.98;100282.28;5018782;28;20296;-70
2022/02/02 07:11:57;;;;;;;19.47;4.23;;;;;;;4.82;79.87;100293.69;5020531;28;20229;-69
2022/02/02 07:14:36;;;;;;;13.40;3.67;;;;;;;4.84;79.94;100312.06;5027700;28;20246;-69
2022/02/02 07:17:15;;;;;;;18.93;3.43;;;;;;;4.84;79.83;100312.06;5019182;28;20340;-69
2022/02/02 07:19:54;;;;;;;22.33;4.63;;;;;;;4.84;79.72;100323.47;5026346;28;20314;-69
2022/02/02 07:22:41;;;;;;;22.17;3.93;;;;;;;4.86;79.61;100328.66;5025246;28;20680;-70
2022/02/02 07:27:58;;;;;;;13.10;3.83;;;;;;;4.85;79.48;100333.09;5023516;28;20276;-70
2022/02/02 07:30:43;;;;;;;14.43;2.80;;;;;;;4.83;79.57;100356.06;5018185;28;20253;-69
2022/02/02 07:33:15;;;;;;;14.20;3.10;;;;;;;4.81;79.30;100344.72;5010514;28;20203;-69
2022/02/02 07:35:57;;;;;;;15.30;3.13;;;;;;;4.82;79.07;100350.88;5016771;28;20290;-69
2022/02/02 07:38:31;;;;;;;14.17;3.33;;;;;;;4.83;78.92;100366.63;5018829;28;20229;-70
2022/02/02 07:41:04;;;;;;;14.53;2.87;;;;;;;4.86;79.21;100358.56;5017395;28;20202;-70
2022/02/02 07:43:37;;;;;;;15.93;3.93;;;;;;;4.84;78.60;100359.53;5016494;28;20205;-68
2022/02/02 07:46:05;;;;;;;12.70;2.97;;;;;;;4.85;78.81;100355.97;5022114;28;20206;-70
2022/02/02 07:48:36;;;;;;;17.10;3.87;;;;;;;4.84;78.70;100368.31;5014811;28;20205;-70
2022/02/02 07:51:03;;;;;;;12.77;2.97;;;;;;;4.82;78.54;100378.09;5016388;28;20210;-69
2022/02/02 07:53:37;;;;;;;9.67;2.27;;;;;;;4.83;78.54;100390.38;5016470;28;20210;-70
2022/02/02 07:56:10;;;;;;;16.50;3.07;;;;;;;4.81;78.35;100397.50;5033295;28;20296;-72
2022/02/02 07:58:38;;;;;;;10.33;2.63;;;;;;;4.81;78.12;100396.66;5034285;28;20201;-71
2022/02/02 08:01:06;;;;;;;14.53;3.13;;;;;;;4.81;78.62;100408.06;5021273;28;20291;-71
2022/02/02 08:03:38;;;;;;;10.87;2.70;;;;;;;4.82;78.61;100401.84;5023861;28;20206;-69
2022/02/02 08:06:06;;;;;;;13.37;2.47;;;;;;;4.82;78.43;100403.63;5018159;28;20218;-71
2022/02/02 08:08:36;;;;;;;15.83;3.37;;;;;;;4.80;78.58;100408.97;5017193;28;20305;-71
2022/02/02 08:11:06;;;;;;;22.30;4.40;;;;;;;4.80;78.83;100430.09;5023908;28;20822;-71
2022/02/02 08:13:39;;;;;;;16.20;3.47;;;;;;;4.81;78.56;100433.59;5012054;28;20210;-71
2022/02/02 08:16:08;;;;;;;11.13;2.80;;;;;;;4.81;78.88;100437.06;5028383;28;20263;-71
2022/02/02 08:18:37;;;;;;;13.90;2.90;;;;;;;4.80;78.83;100434.50;5028265;28;20664;-70
2022/02/02 08:21:03;;;;;;;17.97;2.80;;;;;;;4.81;79.16;100439.72;5027568;28;20209;-69
2022/02/02 08:23:30;;;;;;;20.40;3.57;;;;;;;4.78;79.01;100445.13;5025211;28;20679;-71
2022/02/02 08:25:59;;;;;;;14.90;3.00;;;;;;;4.82;78.75;100456.41;5030173;28;20212;-70
2022/02/02 08:28:26;;;;;;;17.27;2.73;;;;;;;4.84;79.10;100455.38;5032080;28;20671;-72
2022/02/02 08:30:53;;;;;;;17.10;3.30;;;;;;;4.88;78.96;100453.47;5012440;28;20669;-71
2022/02/02 08:33:25;;;;;;;10.77;2.97;;;;;;;4.92;79.00;100462.13;5023658;28;20233;-71
2022/02/02 08:35:54;;;;;;;20.37;3.37;;;;;;;4.94;78.84;100473.47;5017195;28;20706;-71
2022/02/02 08:38:35;;;;;;;16.97;3.50;;;;;;;4.92;79.08;100488.53;5029942;28;20277;-71
2022/02/02 08:41:08;;;;;;;9.33;2.77;;;;;;;4.95;78.62;100485.75;5025301;28;20692;-71
2022/02/02 08:43:40;;;;;;;16.60;2.90;;;;;;;4.99;78.69;100495.25;5010104;28;20241;-72
2022/02/02 08:46:10;;;;;;;16.03;3.23;;;;;;;5.01;78.40;100501.34;5013071;28;20301;-71
2022/02/02 08:48:40;;;;;;;16.13;2.93;;;;;;;5.00;78.32;100502.25;5022959;28;20296;-71
2022/02/02 08:51:11;;;;;;;13.93;3.77;;;;;;;5.00;78.22;100507.53;5022725;28;20232;-71
2022/02/02 08:53:49;;;;;;;21.83;3.47;;;;;;;5.02;78.06;100513.59;5024285;28;20222;-70
2022/02/02 08:56:39;;;;;;;17.63;3.83;;;;;;;5.03;78.10;100518.78;5022938;28;20214;-71
2022/02/02 08:59:10;;;;;;;19.90;3.73;;;;;;;5.06;77.85;100521.31;5017087;28;20230;-71
2022/02/02 09:01:37;;;;;;;14.73;3.00;;;;;;;5.08;77.73;100526.53;5040142;28;20202;-72
2022/02/02 09:06:49;;;;;;;12.80;3.37;;;;;;;5.10;77.76;100529.97;5027849;28;20218;-72
2022/02/02 09:09:18;;;;;;;20.37;2.60;;;;;;;5.10;77.36;100533.47;5028010;28;20229;-71
2022/02/02 09:20:17;;;;;;;20.90;4.23;;;;;;;5.12;77.66;100542.19;5019661;28;20233;-70
2022/02/02 09:25:34;;;;;;;16.40;3.60;;;;;;;5.18;77.50;100554.28;5053170;28;20825;-83
2022/02/02 09:33:55;;;;;;;9.97;3.00;;;;;;;5.24;77.58;100548.69;5024002;28;20762;-82
2022/02/02 09:36:25;;;;;;;14.07;3.03;;;;;;;5.22;77.33;100551.41;5017177;28;20196;-82
2022/02/02 09:38:55;;;;;;;14.93;3.10;;;;;;;5.24;77.18;100554.84;5017266;28;20231;-82
2022/02/02 09:44:11;;;;;;;15.53;3.13;;;;;;;5.30;76.86;100580.13;5033073;28;20210;-83
2022/02/02 09:46:48;;;;;;;14.23;3.50;;;;;;;5.32;76.80;100580.94;5035376;28;20233;-82
2022/02/02 09:49:21;;;;;;;10.40;3.07;;;;;;;5.36;76.64;100587.81;5015084;28;20227;-83
2022/02/02 09:51:53;;;;;;;15.47;2.50;;;;;;;5.42;77.11;100591.94;5015867;28;20219;-83
2022/02/02 09:54:24;;;;;;;16.13;3.23;;;;;;;5.45;76.74;100582.13;5025867;28;20241;-81
2022/02/02 10:00:18;;;;;;;15.77;2.67;;;;;;;5.51;76.81;100579.22;5021931;28;20206;-80
2022/02/02 10:05:35;;;;;;;15.27;2.63;;;;;;;5.52;76.15;100603.84;5019247;28;20203;-83
2022/02/02 10:08:36;;;;;;;11.17;2.53;;;;;;;5.53;75.89;100601.16;5037536;28;20241;-82
2022/02/02 10:11:53;;;;;;;15.87;2.37;;;;;;;5.55;75.57;100607.19;5036432;28;20672;-82
2022/02/02 10:14:39;;;;;;;12.83;2.07;;;;;;;5.59;74.84;100611.44;5036036;28;20732;-82
2022/02/02 10:17:11;;;;;;;11.23;2.63;;;;;;;5.65;74.78;100617.38;5021723;28;20217;-83
2022/02/02 10:19:38;;;;;;;16.97;2.70;;;;;;;5.70;74.81;100621.53;5015070;28;20691;-83
2022/02/02 10:22:20;;;;;;;17.73;2.73;;;;;;;5.75;74.75;100621.31;5017108;28;20215;-83
2022/02/02 10:24:52;;;;;;;16.30;2.33;;;;;;;5.78;74.60;100637.03;5016545;28;20191;-83
2022/02/02 10:27:27;;;;;;;15.90;2.90;;;;;;;5.80;74.29;100632.56;5024489;28;20198;-83
2022/02/02 10:29:54;;;;;;;12.87;2.77;;;;;;;5.79;73.82;100636.97;5056572;28;20702;-83
2022/02/02 10:32:38;;;;;;;17.67;3.10;;;;;;;5.79;73.95;100650.19;5056266;28;20232;-81
2022/02/02 10:35:07;;;;;;;15.23;1.97;;;;;;;5.84;73.92;100631.50;5056545;28;20289;-82
2022/02/02 10:37:35;;;;;;;16.87;2.50;;;;;;;5.87;73.17;100648.09;5016659;28;20234;-82
2022/02/02 10:40:03;;;;;;;11.07;2.10;;;;;;;5.90;73.47;100652.41;5017009;28;20206;-83
2022/02/02 10:42:43;;;;;;;15.97;2.67;;;;;;;5.90;72.78;100655.91;5016799;28;20203;-81
2022/02/02 10:45:21;;;;;;;14.00;2.00;;;;;;;5.91;72.89;100667.34;5032964;28;20291;-82
2022/02/02 10:47:51;;;;;;;9.43;2.07;;;;;;;5.87;71.77;100666.59;5051257;28;20260;-83
2022/02/02 10:50:24;;;;;;;12.00;2.40;;;;;;;5.89;72.99;100683.28;5036956;28;20820;-82
2022/02/02 10:53:24;;;;;;;13.67;2.60;;;;;;;5.89;72.19;100679.78;5035110;28;20210;-81
2022/02/02 10:56:02;;;;;;;9.37;2.57;;;;;;;5.88;71.99;100685.94;5015527;28;20214;-82
2022/02/02 10:59:05;;;;;;;13.60;2.60;;;;;;;5.90;71.84;100692.06;5014216;28;20261;-83
2022/02/02 11:01:36;;;;;;;15.90;2.97;;;;;;;5.87;71.80;100685.09;5042257;28;20282;-83
2022/02/02 11:06:47;;;;;;;7.57;2.60;;;;;;;5.92;72.00;100706.91;5037061;28;20301;-81
2022/02/02 11:09:16;;;;;;;9.37;2.00;;;;;;;5.92;71.29;100706.06;5025586;28;20230;-83
2022/02/02 11:11:43;;;;;;;12.97;1.83;;;;;;;5.92;71.22;100711.34;5020112;28;20221;-83
2022/02/02 11:14:33;;;;;;;14.83;2.17;;;;;;;5.92;71.16;100711.34;5015852;28;20298;-83
2022/02/02 11:17:07;;;;;;;9.07;1.87;;;;;;;5.93;71.24;100715.69;5034209;28;20210;-83
2022/02/02 11:19:37;;;;;;;14.23;3.07;;;;;;;5.91;71.46;100723.69;5035386;28;20233;-83
2022/02/02 11:22:32;;;;;;;11.70;3.20;;;;;;;5.92;72.03;100725.41;5032481;28;20218;-82
2022/02/02 11:25:21;;;;;;;14.53;2.80;;;;;;;5.91;72.14;100731.63;5042408;28;20205;-83
2022/02/02 11:27:49;;;;;;;12.27;2.90;;;;;;;5.93;72.56;100723.63;5037937;28;20282;-81
2022/02/02 11:30:44;;;;;;;12.10;2.60;;;;;;;5.92;72.74;100730.69;5029725;28;20210;-81
2022/02/02 11:33:29;;;;;;;10.73;2.00;;;;;;;5.97;72.70;100750.78;5047008;28;20210;-83
2022/02/02 11:35:58;;;;;;;12.03;2.30;;;;;;;5.98;72.79;100742.81;5035871;28;20210;-83
2022/02/02 11:38:42;;;;;;;13.97;2.20;;;;;;;6.02;72.21;100749.69;5046451;28;20222;-83
2022/02/02 11:41:25;;;;;;;10.23;1.90;;;;;;;6.08;72.29;100749.44;5049965;28;20289;-81
2022/02/02 11:43:56;;;;;;;9.00;2.30;;;;;;;6.09;71.74;100751.13;5034972;28;20194;-81
2022/02/02 11:46:49;;;;;;;6.97;1.97;;;;;;;6.11;71.37;100759.00;5028458;28;20254;-83
2022/02/02 11:49:19;;;;;;;9.77;1.90;;;;;;;6.13;71.69;100747.44;5012753;28;20262;-82
2022/02/02 11:51:47;;;;;;;10.10;3.07;;;;;;;6.18;71.59;100766.59;5014384;28;20214;-83
2022/02/02 11:54:16;;;;;;;6.30;1.30;;;;;;;6.26;71.45;100768.94;5014543;28;20230;-81
2022/02/02 11:57:16;;;;;;;7.00;1.60;;;;;;;6.33;71.23;100767.72;5048574;28;20208;-82
2022/02/02 11:59:52;;;;;;;8.97;1.90;;;;;;;6.37;71.59;100771.94;5055610;28;20224;-82
2022/02/02 12:02:37;;;;;;;8.77;1.53;;;;;;;6.39;71.19;100775.41;5044340;28;20210;-82
2022/02/02 12:05:12;;;;;;;10.57;2.17;;;;;;;6.36;70.20;100779.94;5043771;28;20233;-83
2022/02/02 12:07:57;;;;;;;11.43;2.43;;;;;;;6.35;69.78;100784.38;5023001;28;20234;-81
2022/02/02 12:10:52;;;;;;;7.63;1.70;;;;;;;6.36;70.16;100772.88;5040566;28;20205;-81
2022/02/02 12:28:02;;;;;;;8.03;1.60;;;;;;;6.39;68.77;100787.75;5048817;28;20230;-82
2022/02/02 12:50:13;;;;;;;7.57;1.70;;;;;;;6.55;66.97;100783.50;5017202;28;20656;-82
2022/02/02 12:58:16;;;;;;;7.80;1.30;;;;;;;6.73;67.29;100774.75;5028740;28;20218;-82
2022/02/02 13:01:08;;;;;;;8.33;1.53;;;;;;;6.70;66.19;100790.75;5041916;28;20202;-83
2022/02/02 13:03:35;;;;;;;6.27;1.17;;;;;;;6.68;65.65;100787.31;5019087;28;20199;-83
2022/02/02 13:06:03;;;;;;;9.10;1.50;;;;;;;6.70;65.51;100780.16;5036863;28;20194;-83
2022/02/02 13:08:31;;;;;;;7.53;1.40;;;;;;;6.76;64.93;100797.56;5038817;28;20692;-81
2022/02/02 13:10:58;;;;;;;8.50;1.73;;;;;;;6.79;65.34;100793.00;5038572;28;20300;-81
2022/02/02 13:13:27;;;;;;;4.73;1.13;;;;;;;6.86;65.00;100798.84;5040740;28;20225;-82
2022/02/02 13:16:06;;;;;;;6.33;1.30;;;;;;;6.89;64.82;100802.22;5032834;28;20207;-82
2022/02/02 13:18:36;;;;;;;5.77;1.10;;;;;;;6.88;64.13;100811.09;5052385;28;20257;-82
2022/02/02 13:21:09;;;;;;;9.43;1.37;;;;;;;6.90;63.44;100825.13;5038132;28;20684;-82
2022/02/02 13:23:47;;;;;;;4.83;1.23;;;;;;;6.93;64.34;100814.41;5036057;28;20248;-84
2022/02/02 13:26:20;;;;;;;9.50;1.40;;;;;;;6.98;64.98;100819.50;5037005;28;20193;-82
2022/02/02 13:28:54;;;;;;;7.73;1.30;;;;;;;7.01;64.89;100826.41;5035718;28;20233;-83
2022/02/02 13:31:29;;;;;;;6.60;1.70;;;;;;;6.99;64.35;100833.59;5037324;28;20667;-83
2022/02/02 13:34:06;;;;;;;8.80;1.60;;;;;;;6.93;64.24;100818.84;5018976;28;20229;-84
2022/02/02 13:36:49;;;;;;;6.00;1.67;;;;;;;6.86;64.61;100826.19;5042657;28;20710;-83
2022/02/02 13:42:49;;;;;;;5.97;1.07;;;;;;;6.64;64.29;100833.38;5028499;28;20675;-81
2022/02/02 13:48:43;;;;;;;6.10;1.30;;;;;;;6.45;63.16;100848.34;5023069;28;20611;-83
2022/02/02 13:59:37;;;;;;;7.03;1.00;;;;;;;6.23;63.29;100861.63;5057467;28;20299;-84
2022/02/02 14:02:16;;;;;;;5.17;1.60;;;;;;;6.20;63.58;100877.63;5057192;28;20611;-84
2022/02/02 14:05:01;;;;;;;8.63;1.20;;;;;;;6.19;62.96;100875.88;5049684;28;20286;-84
2022/02/02 14:07:43;;;;;;;5.90;1.23;;;;;;;6.20;63.35;100881.13;5035477;28;20653;-83
2022/02/02 14:10:27;;;;;;;2.83;0.60;;;;;;;6.20;63.08;100875.84;5025833;28;20615;-84
2022/02/02 14:32:07;;;;;;;5.23;0.80;;;;;;;6.09;62.43;100917.69;5017025;28;20260;-83
2022/02/02 14:34:34;;;;;;;8.07;1.00;;;;;;;6.09;62.84;100908.94;5015598;28;20748;-83
2022/02/02 14:37:01;;;;;;;5.33;1.77;;;;;;;6.09;63.28;100920.34;5016781;28;20543;-83
2022/02/02 14:39:42;;;;;;;4.57;0.97;;;;;;;6.11;62.95;100931.72;5016428;28;20289;-82
2022/02/02 14:42:14;;;;;;;3.33;0.80;;;;;;;6.09;62.82;100936.22;5016693;28;20214;-83
2022/02/02 14:44:43;;;;;;;4.53;1.10;;;;;;;6.04;62.08;100935.56;5016430;28;20183;-82
2022/02/02 14:47:13;;;;;;;6.10;1.20;;;;;;;6.00;61.82;100948.94;5016435;28;20215;-82
2022/02/02 14:49:48;;;;;;;3.03;0.70;;;;;;;5.97;61.61;100952.56;5016496;28;20290;-84
2022/02/02 14:52:24;;;;;;;6.27;1.30;;;;;;;5.97;61.56;100951.72;5016087;28;20236;-84
2022/02/02 14:55:17;;;;;;;5.60;1.20;;;;;;;5.96;61.71;100963.22;5015747;28;20220;-83
2022/02/02 15:06:44;;;;;;;7.67;1.47;;;;;;;5.89;61.29;100984.63;5016158;28;20569;-83
2022/02/02 15:09:16;;;;;;;3.70;0.90;;;;;;;5.88;61.99;100990.81;5015523;28;20717;-84
2022/02/02 15:26:18;;;;;;;7.93;1.70;;;;;;;5.74;62.28;101026.56;5015007;28;20665;-83
2022/02/02 15:28:41;;;;;;;11.23;2.33;;;;;;;5.75;62.73;101023.88;5014404;28;20234;-82
2022/02/02 15:31:07;;;;;;;5.73;2.20;;;;;;;5.75;63.25;101023.88;5015467;28;20197;-81
2022/02/02 15:33:35;;;;;;;5.60;2.30;;;;;;;5.72;63.11;101025.78;5015216;28;20230;-83
2022/02/02 15:36:21;;;;;;;7.63;2.60;;;;;;;5.74;63.16;101034.50;5014990;28;20207;-82
2022/02/02 15:38:51;;;;;;;6.57;1.30;;;;;;;5.76;63.38;101040.59;5015200;28;20230;-82
2022/02/02 15:41:23;;;;;;;5.80;1.37;;;;;;;5.78;63.67;101049.31;5014257;28;20206;-82
2022/02/02 15:44:53;;;;;;;4.87;2.10;;;;;;;5.78;64.14;101058.13;5014108;28;20266;-82
2022/02/02 15:55:02;;;;;;;7.10;2.10;;;;;;;5.76;65.94;101082.88;5014907;28;20214;-84
2022/02/02 16:03:11;;;;;;;10.43;1.73;;;;;;;5.70;67.78;101080.47;5014940;28;20195;-84
2022/02/02 16:05:45;;;;;;;8.87;1.60;;;;;;;5.68;67.94;101083.16;5015049;28;20290;-83
2022/02/02 16:08:14;;;;;;;17.40;2.23;;;;;;;5.66;68.20;101089.44;5015265;28;20226;-84
2022/02/02 16:10:50;;;;;;;6.20;2.20;;;;;;;5.62;68.57;101093.09;5015637;28;20268;-84
2022/02/02 16:13:30;;;;;;;10.93;1.80;;;;;;;5.56;69.00;101095.03;5015252;28;20215;-83
2022/02/02 16:15:59;;;;;;;7.73;1.60;;;;;;;5.49;68.98;101093.53;5014788;28;20239;-84
2022/02/02 16:18:40;;;;;;;5.17;1.40;;;;;;;5.45;69.27;101102.47;5012918;28;20778;-83
2022/02/02 16:32:29;;;;;;;6.80;1.50;;;;;;;5.16;70.32;101123.75;5015587;28;20198;-83
2022/02/02 16:35:29;;;;;;;5.77;1.40;;;;;;;5.13;70.42;101137.06;5014812;28;20237;-83
2022/02/02 16:37:59;;;;;;;7.40;1.80;;;;;;;5.09;70.47;101136.28;5016224;28;20598;-83
2022/02/02 16:40:31;;;;;;;11.73;3.10;;;;;;;5.07;70.77;101132.81;5015423;28;20641;-83
2022/02/02 16:43:13;;;;;;;9.00;3.00;;;;;;;5.04;71.13;101138.19;5015541;28;20589;-83
2022/02/02 16:45:41;;;;;;;8.40;3.33;;;;;;;5.03;71.38;101143.53;5016422;28;20207;-82
2022/02/02 16:48:09;;;;;;;9.63;3.17;;;;;;;5.00;71.30;101141.00;5034037;28;20569;-84
2022/02/02 16:50:38;;;;;;;10.47;3.83;;;;;;;4.98;71.97;101150.75;5043170;28;20209;-83
2022/02/02 16:53:11;;;;;;;11.37;3.73;;;;;;;4.96;72.06;101156.09;5054558;28;20677;-83
2022/02/02 16:55:46;;;;;;;20.30;7.20;;;;;;;4.94;72.25;101159.69;5054494;28;20198;-83
2022/02/02 17:24:14;;;;;;;14.53;5.10;;;;;;;4.89;72.31;101154.53;5048495;28;20230;-84
2022/02/02 17:31:33;;;;;;;12.77;5.73;;;;;;;4.42;74.98;101201.72;4977054;28;20209;-83
2022/02/02 17:34:06;;;;;;;12.67;5.40;;;;;;;4.39;75.72;101199.16;5033848;28;20222;-83
2022/02/02 17:36:40;;;;;;;13.67;4.47;;;;;;;4.37;75.88;101194.84;5036311;28;20808;-82
2022/02/02 17:39:09;;;;;;;15.20;6.93;;;;;;;4.35;76.12;101199.28;5028544;28;20294;-81
2022/02/02 17:42:00;;;;;;;10.57;4.97;;;;;;;4.34;76.12;101202.84;5026490;28;20205;-81
2022/02/02 17:44:52;;;;;;;16.00;6.57;;;;;;;4.32;75.94;101194.97;5029128;28;20202;-81